createdAt,value
2023-05-23T00:01:47.477Z,97118.19
2023-05-23T00:04:20.303Z,97123.81
2023-05-23T00:06:50.649Z,97130.66
2023-05-23T00:09:19.413Z,97129.25
2023-05-23T00:11:49.971Z,97145.59
2023-05-23T00:14:18.445Z,97145.22
2023-05-23T00:16:49.663Z,97139.44
2023-05-23T00:19:18.263Z,97138.22
2023-05-23T00:21:50.906Z,97133.50
2023-05-23T00:24:20.555Z,97141.56
2023-05-23T00:26:49.143Z,97140.34
2023-05-23T00:29:17.821Z,97130.25
2023-05-23T00:31:47.462Z,97122.81
2023-05-23T00:34:17.917Z,97118.94
2023-05-23T00:36:50.343Z,97123.09
2023-05-23T00:39:21.401Z,97123.53
2023-05-23T00:41:54.403Z,97128.50
2023-05-23T00:44:23.075Z,97126.03
2023-05-23T00:46:56.164Z,97128.31
2023-05-23T00:49:25.040Z,97129.34
2023-05-23T00:51:53.851Z,97140.31
2023-05-23T00:54:28.580Z,97159.75
2023-05-23T00:56:57.308Z,97143.22
2023-05-23T00:59:27.439Z,97139.53
2023-05-23T01:01:58.608Z,97144.06
2023-05-23T01:04:28.469Z,97142.66
2023-05-23T01:07:00.777Z,97134.44
2023-05-23T01:09:31.309Z,97142.69
2023-05-23T01:12:14.560Z,97139.81
2023-05-23T01:14:49.295Z,97142.09
2023-05-23T01:17:28.222Z,97138.38
2023-05-23T01:20:02.296Z,97135.69
2023-05-23T01:23:01.112Z,97135.69
2023-05-23T01:25:50.398Z,97145.63
2023-05-23T01:28:23.648Z,97143.16
2023-05-23T01:30:57.866Z,97143.38
2023-05-23T01:33:27.320Z,97143.56
2023-05-23T01:38:26.285Z,97136.94
2023-05-23T01:40:55.363Z,97148.53
2023-05-23T01:43:26.648Z,97150.38
2023-05-23T01:45:56.691Z,97149.34
2023-05-23T01:48:27.391Z,97151.22
2023-05-23T01:50:56.731Z,97152.63
2023-05-23T01:55:54.442Z,97158.84
2023-05-23T01:58:24.336Z,97164.63
2023-05-23T02:00:52.815Z,97158.22
2023-05-23T02:03:21.453Z,97158.22
2023-05-23T02:05:49.948Z,97158.44
2023-05-23T02:08:18.387Z,97161.94
2023-05-23T02:10:46.816Z,97163.59
2023-05-23T02:13:15.186Z,97171.66
2023-05-23T02:15:44.979Z,97171.66
2023-05-23T02:18:13.347Z,97176.22
2023-05-23T02:20:41.807Z,97179.91
2023-05-23T02:23:10.830Z,97183.00
2023-05-23T02:25:39.494Z,97182.81
2023-05-23T02:28:07.980Z,97185.69
2023-05-23T02:33:11.301Z,97180.75
2023-05-23T02:35:39.904Z,97176.44
2023-05-23T02:38:08.378Z,97175.38
2023-05-23T02:40:36.744Z,97173.75
2023-05-23T02:43:05.096Z,97175.38
2023-05-23T02:45:33.401Z,97177.44
2023-05-23T02:48:01.812Z,97178.28
2023-05-23T02:50:34.808Z,97183.63
2023-05-23T02:53:03.832Z,97177.44
2023-05-23T02:55:32.463Z,97179.09
2023-05-23T02:58:00.841Z,97175.59
2023-05-23T03:00:29.341Z,97174.75
2023-05-23T03:02:57.788Z,97180.97
2023-05-23T03:05:26.123Z,97180.75
2023-05-23T03:07:55.825Z,97177.22
2023-05-23T03:10:24.223Z,97177.00
2023-05-23T03:12:52.506Z,97170.84
2023-05-23T03:15:21.269Z,97179.50
2023-05-23T03:17:49.650Z,97181.16
2023-05-23T03:20:18.027Z,97174.97
2023-05-23T03:22:46.325Z,97173.69
2023-05-23T03:25:17.321Z,97176.38
2023-05-23T03:27:48.464Z,97174.53
2023-05-23T03:30:17.046Z,97178.06
2023-05-23T03:32:45.422Z,97177.00
2023-05-23T03:35:13.877Z,97171.66
2023-05-23T03:37:42.313Z,97175.75
2023-05-23T03:40:11.731Z,97178.44
2023-05-23T03:42:41.869Z,97171.22
2023-05-23T03:45:10.236Z,97170.38
2023-05-23T03:47:38.654Z,97180.91
2023-05-23T03:50:10.946Z,97176.19
2023-05-23T03:52:39.277Z,97176.19
2023-05-23T03:55:12.031Z,97174.16
2023-05-23T03:57:41.764Z,97175.97
2023-05-23T04:00:12.337Z,97178.47
2023-05-23T04:02:40.863Z,97183.63
2023-05-23T04:05:10.246Z,97184.47
2023-05-23T04:07:38.753Z,97185.28
2023-05-23T04:10:08.982Z,97189.84
2023-05-23T04:12:41.772Z,97186.94
2023-05-23T04:15:11.411Z,97187.97
2023-05-23T04:17:39.823Z,97190.44
2023-05-23T04:20:10.969Z,97190.22
2023-05-23T04:22:39.255Z,97193.53
2023-05-23T04:25:09.519Z,97188.78
2023-05-23T04:27:40.381Z,97196.63
2023-05-23T04:30:11.765Z,97200.13
2023-05-23T04:32:40.215Z,97201.59
2023-05-23T04:35:12.907Z,97199.91
2023-05-23T04:37:42.660Z,97201.38
2023-05-23T04:40:13.581Z,97203.66
2023-05-23T04:42:44.680Z,97195.34
2023-05-23T04:45:17.768Z,97205.88
2023-05-23T04:47:46.677Z,97203.81
2023-05-23T04:50:18.631Z,97205.25
2023-05-23T04:52:46.995Z,97205.88
2023-05-23T04:55:17.619Z,97208.34
2023-05-23T04:57:46.150Z,97215.97
2023-05-23T05:00:17.292Z,97206.06
2023-05-23T05:02:45.725Z,97206.88
2023-05-23T05:05:14.077Z,97211.03
2023-05-23T05:07:42.444Z,97209.97
2023-05-23T05:10:16.876Z,97210.81
2023-05-23T05:12:46.862Z,97216.78
2023-05-23T05:15:18.439Z,97223.59
2023-05-23T05:17:49.711Z,97220.72
2023-05-23T05:20:18.430Z,97223.19
2023-05-23T05:22:47.676Z,97222.97
2023-05-23T05:25:16.036Z,97216.56
2023-05-23T05:27:44.733Z,97223.56
2023-05-23T05:30:14.995Z,97227.28
2023-05-23T05:32:46.544Z,97229.34
2023-05-23T05:35:15.191Z,97233.03
2023-05-23T05:37:43.611Z,97247.69
2023-05-23T05:40:12.644Z,97248.69
2023-05-23T05:42:40.995Z,97254.09
2023-05-23T05:45:11.506Z,97249.91
2023-05-23T05:47:39.941Z,97254.44
2023-05-23T05:50:11.011Z,97251.09
2023-05-23T05:52:40.081Z,97246.75
2023-05-23T05:55:11.424Z,97251.06
2023-05-23T05:57:40.112Z,97247.47
2023-05-23T06:00:13.605Z,97247.00
2023-05-23T06:02:43.250Z,97246.13
2023-05-23T06:05:14.064Z,97244.84
2023-05-23T06:07:42.621Z,97248.72
2023-05-23T06:10:13.124Z,97246.59
2023-05-23T06:12:41.744Z,97243.84
2023-05-23T06:15:11.207Z,97263.03
2023-05-23T06:17:39.610Z,97260.06
2023-05-23T06:20:09.333Z,97262.69
2023-05-23T06:22:39.173Z,97267.81
2023-05-23T06:25:09.171Z,97261.31
2023-05-23T06:27:38.166Z,97260.78
2023-05-23T06:30:08.101Z,97270.69
2023-05-23T06:32:36.770Z,97271.25
2023-05-23T06:35:05.872Z,97270.38
2023-05-23T06:37:34.479Z,97274.44
2023-05-23T06:40:05.575Z,97277.41
2023-05-23T06:42:33.949Z,97270.47
2023-05-23T06:45:02.337Z,97264.16
2023-05-23T06:47:33.135Z,97270.06
2023-05-23T06:50:01.509Z,97270.56
2023-05-23T06:52:29.802Z,97270.69
2023-05-23T06:54:58.129Z,97283.84
2023-05-23T06:57:27.945Z,97281.41
2023-05-23T06:59:56.271Z,97271.94
2023-05-23T07:02:24.701Z,97276.19
2023-05-23T07:04:58.724Z,97272.72
2023-05-23T07:07:27.061Z,97272.97
2023-05-23T07:09:55.506Z,97282.44
2023-05-23T07:12:23.913Z,97280.22
2023-05-23T07:14:53.639Z,97284.81
2023-05-23T07:17:22.574Z,97279.91
2023-05-23T07:19:50.977Z,97288.47
2023-05-23T07:22:19.298Z,97284.38
2023-05-23T07:24:47.696Z,97286.13
2023-05-23T07:27:16.094Z,97289.13
2023-05-23T07:29:44.459Z,97286.53
2023-05-23T07:32:14.185Z,97282.31
2023-05-23T07:34:45.518Z,97287.94
2023-05-23T07:37:13.835Z,97282.16
2023-05-23T07:39:43.248Z,97278.75
2023-05-23T07:42:11.606Z,97280.50
2023-05-23T07:44:42.886Z,97283.09
2023-05-23T07:47:11.301Z,97281.31
2023-05-23T07:49:40.949Z,97293.63
2023-05-23T07:52:09.268Z,97292.72
2023-05-23T07:54:37.627Z,97293.41
2023-05-23T07:57:07.405Z,97285.03
2023-05-23T07:59:36.131Z,97286.31
2023-05-23T08:02:04.753Z,97281.47
2023-05-23T08:04:36.821Z,97284.31
2023-05-23T08:07:08.441Z,97288.16
2023-05-23T08:09:36.978Z,97282.84
2023-05-23T08:12:06.068Z,97284.50
2023-05-23T08:14:49.036Z,97280.00
2023-05-23T08:17:18.876Z,97280.91
2023-05-23T08:19:47.615Z,97283.56
2023-05-23T08:22:18.533Z,97290.75
2023-05-23T08:24:49.643Z,97285.66
2023-05-23T08:27:18.073Z,97283.88
2023-05-23T08:29:46.523Z,97284.78
2023-05-23T08:32:15.027Z,97280.03
2023-05-23T08:34:43.576Z,97291.78
2023-05-23T08:37:11.891Z,97301.13
2023-05-23T08:39:41.621Z,97297.53
2023-05-23T08:42:10.048Z,97301.72
2023-05-23T08:44:40.679Z,97301.66
2023-05-23T08:47:10.242Z,97300.19
2023-05-23T08:49:39.865Z,97306.09
2023-05-23T08:52:13.733Z,97312.66
2023-05-23T08:54:44.356Z,97304.34
2023-05-23T08:57:13.116Z,97313.47
2023-05-23T08:59:42.154Z,97309.75
2023-05-23T09:02:13.108Z,97311.50
2023-05-23T09:04:41.508Z,97319.53
2023-05-23T09:07:11.757Z,97305.78
2023-05-23T09:09:40.427Z,97313.22
2023-05-23T09:12:10.332Z,97317.38
2023-05-23T09:14:38.677Z,97325.59
2023-05-23T09:17:07.076Z,97323.16
2023-05-23T09:19:42.174Z,97328.81
2023-05-23T09:22:10.519Z,97323.41
2023-05-23T09:24:40.168Z,97329.41
2023-05-23T09:27:13.374Z,97328.00
2023-05-23T09:29:41.736Z,97337.22
2023-05-23T09:32:14.316Z,97334.50
2023-05-23T09:34:43.517Z,97330.72
2023-05-23T09:37:19.302Z,97322.56
2023-05-23T09:39:49.333Z,97331.28
2023-05-23T09:42:23.090Z,97327.19
2023-05-23T09:44:51.585Z,97328.06
2023-05-23T09:47:20.307Z,97332.69
2023-05-23T09:49:48.986Z,97323.47
2023-05-23T09:52:17.313Z,97326.75
2023-05-23T09:54:49.389Z,97317.06
2023-05-23T09:57:18.145Z,97327.53
2023-05-23T09:59:54.745Z,97330.09
2023-05-23T10:02:55.430Z,97321.75
2023-05-23T10:05:36.376Z,97329.19
2023-05-23T10:08:10.780Z,97338.47
2023-05-23T10:11:41.689Z,97325.50
2023-05-23T10:14:11.777Z,97323.38
2023-05-23T10:16:51.625Z,97326.16
2023-05-23T10:19:25.975Z,97328.44
2023-05-23T10:22:02.731Z,97318.97
2023-05-23T10:24:31.587Z,97322.06
2023-05-23T10:27:00.142Z,97312.63
2023-05-23T10:29:31.832Z,97307.78
2023-05-23T10:32:03.036Z,97305.94
2023-05-23T10:34:39.318Z,97303.53
2023-05-23T10:37:09.352Z,97303.34
2023-05-23T10:39:58.652Z,97295.72
2023-05-23T10:42:40.041Z,97292.47
2023-05-23T10:45:19.629Z,97300.63
2023-05-23T10:47:52.481Z,97295.19
2023-05-23T10:50:34.023Z,97293.78
2023-05-23T10:53:04.117Z,97288.34
2023-05-23T10:55:37.210Z,97297.59
2023-05-23T10:58:14.082Z,97298.69
2023-05-23T11:00:54.332Z,97291.28
2023-05-23T11:03:39.024Z,97273.38
2023-05-23T11:06:08.181Z,97279.91
2023-05-23T11:08:48.542Z,97276.41
2023-05-23T11:11:17.663Z,97276.31
2023-05-23T11:14:02.493Z,97288.31
2023-05-23T11:16:32.903Z,97290.97
2023-05-23T11:19:28.253Z,97288.72
2023-05-23T11:22:02.596Z,97278.41
2023-05-23T11:24:52.166Z,97296.16
2023-05-23T11:27:28.609Z,97285.34
2023-05-23T11:30:07.965Z,97295.72
2023-05-23T11:32:37.430Z,97294.94
2023-05-23T11:35:10.017Z,97290.34
2023-05-23T11:37:40.315Z,97294.69
2023-05-23T11:40:30.000Z,97306.09
2023-05-23T11:42:58.465Z,97291.38
2023-05-23T11:45:28.557Z,97292.91
2023-05-23T11:47:57.065Z,97309.47
2023-05-23T11:50:26.909Z,97291.97
2023-05-23T11:52:57.076Z,97292.22
2023-05-23T11:55:25.625Z,97300.31
2023-05-23T11:57:57.520Z,97300.84
2023-05-23T12:00:25.986Z,97301.63
2023-05-23T12:02:54.492Z,97300.78
2023-05-23T12:05:22.966Z,97301.81
2023-05-23T12:07:52.800Z,97289.50
2023-05-23T12:10:22.328Z,97296.78
2023-05-23T12:12:53.517Z,97296.25
2023-05-23T12:15:28.131Z,97297.31
2023-05-23T12:17:57.786Z,97292.44
2023-05-23T12:20:27.731Z,97301.13
2023-05-23T12:22:58.714Z,97303.78
2023-05-23T12:25:27.223Z,97292.63
2023-05-23T12:27:56.367Z,97300.03
2023-05-23T12:30:25.162Z,97292.44
2023-05-23T12:32:53.786Z,97299.34
2023-05-23T12:35:22.209Z,97301.03
2023-05-23T12:37:50.886Z,97303.75
2023-05-23T12:40:21.760Z,97308.09
2023-05-23T12:42:54.507Z,97305.63
2023-05-23T12:45:25.199Z,97299.84
2023-05-23T12:47:54.361Z,97301.81
2023-05-23T12:50:23.018Z,97307.25
2023-05-23T12:52:51.345Z,97301.22
2023-05-23T12:55:21.303Z,97306.03
2023-05-23T12:57:49.690Z,97310.91
2023-05-23T13:00:19.551Z,97320.66
2023-05-23T13:02:48.021Z,97317.94
2023-05-23T13:05:16.475Z,97317.38
2023-05-23T13:07:45.245Z,97308.16
2023-05-23T13:10:13.950Z,97314.13
2023-05-23T13:12:43.893Z,97316.91
2023-05-23T13:15:13.267Z,97313.19
2023-05-23T13:17:41.819Z,97311.56
2023-05-23T13:20:14.406Z,97308.59
2023-05-23T13:22:42.974Z,97305.56
2023-05-23T13:25:12.376Z,97306.03
2023-05-23T13:27:40.751Z,97302.22
2023-05-23T13:30:11.823Z,97303.94
2023-05-23T13:32:40.235Z,97297.19
2023-05-23T13:35:09.953Z,97299.66
2023-05-23T13:37:39.043Z,97297.47
2023-05-23T13:40:09.121Z,97294.28
2023-05-23T13:42:37.561Z,97283.41
2023-05-23T13:45:07.568Z,97276.59
2023-05-23T13:47:37.793Z,97285.88
2023-05-23T13:50:08.476Z,97285.88
2023-05-23T13:52:37.108Z,97278.03
2023-05-23T13:55:06.826Z,97283.16
2023-05-23T13:57:35.287Z,97281.03
2023-05-23T14:00:03.858Z,97286.97
2023-05-23T14:02:32.995Z,97289.75
2023-05-23T14:05:02.893Z,97288.09
2023-05-23T14:07:31.384Z,97285.09
2023-05-23T14:09:59.870Z,97285.94
2023-05-23T14:12:28.374Z,97287.84
2023-05-23T14:14:56.712Z,97291.91
2023-05-23T14:17:25.407Z,97285.38
2023-05-23T14:19:53.879Z,97287.25
2023-05-23T14:22:23.781Z,97289.97
2023-05-23T14:24:52.293Z,97285.88
2023-05-23T14:27:20.731Z,97295.16
2023-05-23T14:29:49.890Z,97289.09
2023-05-23T14:32:18.438Z,97302.41
2023-05-23T14:34:46.848Z,97297.72
2023-05-23T14:37:15.221Z,97286.53
2023-05-23T14:39:46.839Z,97293.53
2023-05-23T14:42:15.295Z,97301.63
2023-05-23T14:44:43.745Z,97295.84
2023-05-23T14:47:12.177Z,97311.66
2023-05-23T14:49:40.682Z,97301.81
2023-05-23T14:52:09.186Z,97311.91
2023-05-23T14:54:37.631Z,97324.94
2023-05-23T14:57:08.257Z,97320.25
2023-05-23T14:59:37.081Z,97318.56
2023-05-23T15:02:07.344Z,97323.19
2023-05-23T15:04:37.264Z,97317.38
2023-05-23T15:07:06.164Z,97320.06
2023-05-23T15:09:34.573Z,97325.75
2023-05-23T15:12:04.822Z,97343.63
2023-05-23T15:14:34.585Z,97347.09
2023-05-23T15:17:08.048Z,97336.22
2023-05-23T15:19:37.160Z,97339.19
2023-05-23T15:22:06.512Z,97345.81
2023-05-23T15:24:40.782Z,97344.38
2023-05-23T15:27:20.197Z,97350.81
2023-05-23T15:29:50.666Z,97346.63
2023-05-23T15:32:19.217Z,97353.41
2023-05-23T15:34:47.746Z,97359.59
2023-05-23T15:37:16.821Z,97361.97
2023-05-23T15:39:45.351Z,97355.91
2023-05-23T15:42:13.790Z,97349.41
2023-05-23T15:44:42.243Z,97363.38
2023-05-23T15:47:12.102Z,97357.91
2023-05-23T15:49:40.534Z,97369.22
2023-05-23T15:52:09.089Z,97367.59
2023-05-23T15:54:40.206Z,97368.66
2023-05-23T15:57:08.647Z,97372.69
2023-05-23T15:59:38.033Z,97376.47
2023-05-23T16:02:06.920Z,97382.41
2023-05-23T16:04:37.089Z,97392.69
2023-05-23T16:07:06.605Z,97383.41
2023-05-23T16:09:35.029Z,97377.03
2023-05-23T16:12:03.473Z,97383.81
2023-05-23T16:14:32.024Z,97379.69
2023-05-23T16:17:04.837Z,97381.81
2023-05-23T16:19:35.906Z,97392.09
2023-05-23T16:22:06.518Z,97400.97
2023-05-23T16:24:34.999Z,97387.59
2023-05-23T16:27:04.029Z,97384.28
2023-05-23T16:29:35.516Z,97382.81
2023-05-23T16:32:04.010Z,97391.66
2023-05-23T16:34:32.484Z,97389.91
2023-05-23T16:37:01.024Z,97394.44
2023-05-23T16:39:30.765Z,97394.31
2023-05-23T16:42:00.444Z,97394.75
2023-05-23T16:44:29.256Z,97387.16
2023-05-23T16:46:57.784Z,97391.75
2023-05-23T16:49:26.238Z,97398.72
2023-05-23T16:51:54.654Z,97394.28
2023-05-23T16:54:22.999Z,97390.84
2023-05-23T16:56:52.797Z,97400.91
2023-05-23T16:59:21.287Z,97406.78
2023-05-23T17:01:49.710Z,97414.78
2023-05-23T17:04:20.389Z,97404.06
2023-05-23T17:06:48.984Z,97413.50
2023-05-23T17:09:18.034Z,97407.16
2023-05-23T17:11:46.487Z,97398.25
2023-05-23T17:14:16.363Z,97406.25
2023-05-23T17:16:44.833Z,97409.19
2023-05-23T17:19:20.850Z,97407.69
2023-05-23T17:21:49.703Z,97415.00
2023-05-23T17:24:18.130Z,97422.41
2023-05-23T17:26:46.525Z,97413.13
2023-05-23T17:29:17.427Z,97412.41
2023-05-23T17:31:45.959Z,97418.97
2023-05-23T17:34:14.448Z,97427.81
2023-05-23T17:36:42.863Z,97418.75
2023-05-23T17:39:11.229Z,97422.97
2023-05-23T17:41:39.839Z,97421.81
2023-05-23T17:44:08.845Z,97423.56
2023-05-23T17:46:38.690Z,97425.69
2023-05-23T17:49:07.209Z,97420.97
2023-05-23T17:51:36.367Z,97430.63
2023-05-23T17:54:05.115Z,97427.53
2023-05-23T17:56:33.583Z,97437.41
2023-05-23T17:59:05.286Z,97434.81
2023-05-23T18:01:34.606Z,97433.63
2023-05-23T18:04:04.558Z,97444.50
2023-05-23T18:06:33.235Z,97448.75
2023-05-23T18:09:01.690Z,97438.84
2023-05-23T18:11:30.425Z,97445.56
2023-05-23T18:13:58.759Z,97449.75
2023-05-23T18:16:27.554Z,97445.03
2023-05-23T18:18:57.310Z,97444.91
2023-05-23T18:21:28.838Z,97441.03
2023-05-23T18:23:57.631Z,97443.59
2023-05-23T18:26:26.068Z,97445.91
2023-05-23T18:28:54.746Z,97446.38
2023-05-23T18:31:23.199Z,97451.19
2023-05-23T18:33:51.772Z,97451.66
2023-05-23T18:36:20.352Z,97462.31
2023-05-23T18:38:50.279Z,97459.00
2023-05-23T18:41:18.826Z,97455.94
2023-05-23T18:43:47.216Z,97456.63
2023-05-23T18:46:15.853Z,97458.94
2023-05-23T18:48:44.703Z,97474.50
2023-05-23T18:51:13.404Z,97475.41
2023-05-23T18:53:43.256Z,97481.28
2023-05-23T18:56:13.129Z,97481.38
2023-05-23T18:58:41.591Z,97484.75
2023-05-23T19:01:10.014Z,97498.06
2023-05-23T19:03:38.505Z,97507.47
2023-05-23T19:06:08.044Z,97505.66
2023-05-23T19:08:36.543Z,97509.03
2023-05-23T19:11:05.982Z,97510.75
2023-05-23T19:13:35.836Z,97512.66
2023-05-23T19:16:05.566Z,97515.66
2023-05-23T19:18:34.001Z,97525.03
2023-05-23T19:21:02.387Z,97519.25
2023-05-23T19:23:30.857Z,97532.16
2023-05-23T19:25:59.265Z,97537.59
2023-05-23T19:28:27.681Z,97532.25
2023-05-23T19:30:57.462Z,97533.97
2023-05-23T19:33:25.971Z,97537.31
2023-05-23T19:35:55.006Z,97552.50
2023-05-23T19:38:23.409Z,97551.94
2023-05-23T19:40:51.907Z,97549.28
2023-05-23T19:43:20.479Z,97563.63
2023-05-23T19:45:48.940Z,97562.00
2023-05-23T19:48:18.847Z,97562.84
2023-05-23T19:50:47.656Z,97572.84
2023-05-23T19:53:16.946Z,97570.16
2023-05-23T19:55:45.655Z,97571.22
2023-05-23T19:58:14.129Z,97580.16
2023-05-23T20:00:42.834Z,97588.28
2023-05-23T20:03:13.154Z,97591.22
2023-05-23T20:05:43.217Z,97593.09
2023-05-23T20:08:11.754Z,97595.81
2023-05-23T20:10:40.557Z,97597.28
2023-05-23T20:13:09.130Z,97592.94
2023-05-23T20:15:40.036Z,97605.34
2023-05-23T20:18:09.215Z,97597.50
2023-05-23T20:20:37.608Z,97603.72
2023-05-23T20:23:07.606Z,97607.22
2023-05-23T20:25:36.026Z,97611.38
2023-05-23T20:28:04.446Z,97615.50
2023-05-23T20:30:32.874Z,97618.63
2023-05-23T20:33:01.657Z,97613.88
2023-05-23T20:35:30.063Z,97616.16
2023-05-23T20:37:58.684Z,97621.09
2023-05-23T20:40:29.764Z,97623.63
2023-05-23T20:43:04.717Z,97631.06
2023-05-23T20:45:33.397Z,97628.13
2023-05-23T20:48:04.738Z,97624.84
2023-05-23T20:50:33.876Z,97631.44
2023-05-23T20:53:02.673Z,97620.69
2023-05-23T20:55:34.891Z,97625.00
2023-05-23T20:58:03.407Z,97630.38
2023-05-23T21:00:31.900Z,97633.03
2023-05-23T21:03:00.377Z,97631.34
2023-05-23T21:05:28.989Z,97639.84
2023-05-23T21:07:57.406Z,97631.56
2023-05-23T21:10:26.439Z,97634.66
2023-05-23T21:12:56.226Z,97638.97
2023-05-23T21:15:24.855Z,97639.56
2023-05-23T21:17:53.579Z,97641.66
2023-05-23T21:20:22.756Z,97643.06
2023-05-23T21:22:51.185Z,97645.13
2023-05-23T21:25:19.736Z,97648.22
2023-05-23T21:27:48.145Z,97651.50
2023-05-23T21:30:18.048Z,97647.38
2023-05-23T21:32:46.564Z,97652.31
2023-05-23T21:35:15.013Z,97648.56
2023-05-23T21:37:43.418Z,97655.16
2023-05-23T21:40:12.554Z,97656.41
2023-05-23T21:42:40.953Z,97658.00
2023-05-23T21:45:10.810Z,97654.69
2023-05-23T21:47:43.465Z,97650.53
2023-05-23T21:50:17.384Z,97659.00
2023-05-23T21:52:45.863Z,97661.69
2023-05-23T21:55:14.255Z,97661.03
2023-05-23T21:57:47.456Z,97663.09
2023-05-23T22:00:19.146Z,97666.41
2023-05-23T22:02:48.996Z,97667.00
2023-05-23T22:05:17.543Z,97674.41
2023-05-23T22:07:51.364Z,97668.63
2023-05-23T22:10:19.934Z,97678.53
2023-05-23T22:12:48.316Z,97674.41
2023-05-23T22:15:16.632Z,97681.81
2023-05-23T22:17:47.653Z,97681.19
2023-05-23T22:20:17.683Z,97672.69
2023-05-23T22:22:46.269Z,97674.72
2023-05-23T22:25:14.680Z,97681.34
2023-05-23T22:27:43.109Z,97677.81
2023-05-23T22:30:14.865Z,97671.00
2023-05-23T22:32:43.306Z,97674.72
2023-05-23T22:35:11.911Z,97680.28
2023-05-23T22:37:41.813Z,97678.59
2023-05-23T22:40:11.168Z,97678.97
2023-05-23T22:42:40.040Z,97676.50
2023-05-23T22:45:10.287Z,97676.69
2023-05-23T22:47:40.501Z,97678.75
2023-05-23T22:50:10.452Z,97676.28
2023-05-23T22:52:38.798Z,97670.44
2023-05-23T22:55:12.634Z,97674.38
2023-05-23T22:57:41.065Z,97669.38
2023-05-23T23:00:11.709Z,97676.78
2023-05-23T23:02:40.275Z,97672.84
2023-05-23T23:05:11.876Z,97667.88
2023-05-23T23:07:40.393Z,97676.31
2023-05-23T23:10:11.186Z,97672.16
2023-05-23T23:12:41.846Z,97677.72
2023-05-23T23:15:14.220Z,97680.56
2023-05-23T23:17:42.722Z,97677.44
2023-05-23T23:20:12.664Z,97681.16
2023-05-23T23:22:41.366Z,97667.28
2023-05-23T23:25:11.964Z,97675.34
2023-05-23T23:27:41.027Z,97667.66
2023-05-23T23:30:10.936Z,97679.44
2023-05-23T23:32:39.373Z,97675.25
2023-05-23T23:35:11.332Z,97675.44
2023-05-23T23:37:39.723Z,97674.84
2023-05-23T23:40:11.191Z,97676.69
2023-05-23T23:42:39.668Z,97682.81
2023-05-23T23:45:09.415Z,97684.03
2023-05-23T23:47:37.784Z,97697.44
2023-05-23T23:50:07.694Z,97692.19
2023-05-23T23:52:37.290Z,97695.06
2023-05-23T23:55:06.584Z,97695.44
2023-05-23T23:57:36.380Z,97690.28
